Angwin, CA

5:57 AM PDT on May 04, 2015 (GMT -0700)
Edgewood | | Change Station
CLOSE
Current Station
Personal Weather Station
Location: Angwin, CA
Elevation: 1766 ft
Nearby Weather Stations

Elev 1766 ft 38.57 °N, 122.44 °W | Updated 3 seconds ago

Mostly Cloudy
Mostly Cloudy
43.8 °F
Feels Like 44 °F
N
0.0
Wind Variable Wind from North
Gusts 1.0 mph

Today
High -- | Low -- °F
--% Chance of Precip.
Yesterday
High -- | Low -- °F
Precip. -- in
6:09 AM 8:04 PM
Full, 100% visible
Pressure 29.88 in
Visibility 10.0 miles
Clouds Overcast 800 ft
Windchill 44 °F
Dew Point 36 °F
Humidity 73%
Rainfall 0.00 in
Snow Depth Not available.
UV 0 out of 12
Pollen 7.10 out of 12
Air Quality Not available.
Flu Activity Sporadic
METAR KSTS 041153Z AUTO 00000KT 10SM OVC008 09/08 A2990 RMK AO2 SLP119 T00940083 10106 20094 56002

More Conditions Fewer Conditions

Pressure 29.88 in
Visibility 10.0 miles
Clouds Overcast 800 ft
Windchill 44 °F
Dew Point 36 °F
Humidity 73%
Rainfall 0.00 in
Snow Depth Not available.
UV 0 out of 12
Pollen 7.10 out of 12
Air Quality Not available.
Flu Activity Sporadic
METAR KSTS 041153Z AUTO 00000KT 10SM OVC008 09/08 A2990 RMK AO2 SLP119 T00940083 10106 20094 56002

More Conditions Fewer Conditions

Nepal has a long way to go to dig out and rebuild from a devastating earthquake. We have teamed up with several charities and organizations to make contributing to the relief effort as easy as possible.
How you can help: Portlight Strategies | Red Cross

10-Day Weather Forecast

Almanac

Astronomy

May. 04, 2015 Rise Set
Actual Time
Civil Twilight
Nautical Twilight
Astronomical Twilight
Moon
Length of Visible Light
Length of Day
Tomorrow will be .
, % of the Moon is Illuminated

Today's Extremes

State Highs State Lows

Community

WunderPhotos

Upload Photos

1,818,585 photos uploaded!

WunderBlogs® & News

Nearby

Air Quality

  Air Quality AQ Index Pollutant
Not available.

Snow Depth

Station Depth Elevation

Earthquake Activity

City Distance Mag. Time & Date
Minimum magnitude displayed is 2.5.

Coastal Water Temperatures

Place Temperature

Stations

Nearby Weather Stations

Station Location Temp. Windchill Dew Point Humidity Wind Precip. Elev Updated Type